This is the latest recevied weather packets stored in our database for station/object SP6RGZ-1. If no packets are shown the sender has not sent any weather packets the latest 10 day(s).
| Time | Temp. | Humidity | Pressure | Rain* | Wind** | Luminosity | Snow |
|---|---|---|---|---|---|---|---|
| 1778022003 | 15° C | 82% | 985.3 hPa | - | - | - | - |
| 1778021102 | 15° C | 81% | 985.5 hPa | - | - | - | - |
| 1778020202 | 15.56° C | 80% | 985.7 hPa | - | - | - | - |
| 1778019302 | 15.56° C | 79% | 985.7 hPa | - | - | - | - |
| 1778018402 | 16.11° C | 78% | 985.9 hPa | - | - | - | - |
| 1778017502 | 16.11° C | 78% | 986 hPa | - | - | - | - |
| 1778016602 | 16.67° C | 78% | 986 hPa | - | - | - | - |
| 1778015702 | 17.22° C | 76% | 986.1 hPa | - | - | - | - |
| 1778014802 | 17.22° C | 76% | 986.2 hPa | - | - | - | - |
| 1778013902 | 17.22° C | 77% | 986.3 hPa | - | - | - | - |
| 1778013002 | 17.78° C | 78% | 986.4 hPa | - | - | - | - |
| 1778012102 | 17.78° C | 79% | 986.3 hPa | - | - | - | - |
| 1778011202 | 18.33° C | 77% | 986.5 hPa | - | - | - | - |
| 1778010302 | 18.89° C | 76% | 986.6 hPa | - | - | - | - |
| 1778009402 | 19.44° C | 75% | 986.6 hPa | - | - | - | - |
| 1778008502 | 20° C | 76% | 986.4 hPa | - | - | - | - |
| 1778007602 | 20° C | 75% | 986.2 hPa | - | - | - | - |
| 1778006702 | 20.56° C | 75% | 986.1 hPa | - | - | - | - |
| 1778005802 | 21.11° C | 74% | 986.1 hPa | - | - | - | - |
| 1778004902 | 21.67° C | 71% | 986 hPa | - | - | - | - |
| 1778004002 | 22.22° C | 68% | 985.9 hPa | - | - | - | - |
| 1778003102 | 22.78° C | 63% | 985.8 hPa | - | - | - | - |
| 1778002202 | 24.44° C | 46% | 985.7 hPa | - | - | - | - |
| 1778001302 | 25° C | 39% | 985.6 hPa | - | - | - | - |
| 1778000402 | 25.56° C | 37% | 985.6 hPa | - | - | - | - |
* Rain since midnight (hover to see other rain measurements)
** Current wind speed in m/s (hover to see current wind gust speed)